Winifrede, West Virginia
Current Conditions -  °F | °C
As of 12:54 PM on Thursday 30 Oct 2014 (Local Time) from KCRW Reporting Station
Overcast Overcast  
Wind Chill: 48°   Ceiling: 3400
Heat Index: 48°   Visibility: 10mi
Dew Point: 34°   Wind: 0mph
Humidity: 58%   Direction: NA
Pressure: 30.13"   Gusts: NA
Location:  38.19°N, 81.56°W
Report Text: KCRW 301654Z 00000KT 10SM OVC034 09/01 A3013 RMK AO2 SLP204 T00890011
Loading
Personal Weather Stations






























Interactive Weather Map
Tropical Storm Tracking
New forecast layout! Learn more

10-Day Weather Forecast

Advertisements
Track Severe Weather on mobile